sensor_id;sensor_type;location;lat;lon;timestamp;P1;durP1;ratioP1;P2;durP2;ratioP2
72573;SDS011;60603;52.548;13.420;2023-08-21T00:01:47;14.20;;;7.80;;
72573;SDS011;60603;52.548;13.420;2023-08-21T00:04:14;15.38;;;8.30;;
72573;SDS011;60603;52.548;13.420;2023-08-21T00:06:41;13.50;;;7.63;;
72573;SDS011;60603;52.548;13.420;2023-08-21T00:09:08;15.98;;;8.57;;
72573;SDS011;60603;52.548;13.420;2023-08-21T00:11:35;13.68;;;8.63;;
72573;SDS011;60603;52.548;13.420;2023-08-21T00:14:02;14.90;;;8.20;;
72573;SDS011;60603;52.548;13.420;2023-08-21T00:16:28;14.77;;;7.57;;
72573;SDS011;60603;52.548;13.420;2023-08-21T00:18:56;13.45;;;8.55;;
72573;SDS011;60603;52.548;13.420;2023-08-21T00:21:23;13.63;;;8.13;;
72573;SDS011;60603;52.548;13.420;2023-08-21T00:23:50;11.98;;;7.70;;
72573;SDS011;60603;52.548;13.420;2023-08-21T00:26:16;12.43;;;7.93;;
72573;SDS011;60603;52.548;13.420;2023-08-21T00:28:43;15.25;;;7.85;;
72573;SDS011;60603;52.548;13.420;2023-08-21T00:31:10;15.60;;;7.60;;
72573;SDS011;60603;52.548;13.420;2023-08-21T00:33:37;17.80;;;9.15;;
72573;SDS011;60603;52.548;13.420;2023-08-21T00:36:04;12.55;;;7.85;;
72573;SDS011;60603;52.548;13.420;2023-08-21T00:38:31;12.55;;;7.90;;
72573;SDS011;60603;52.548;13.420;2023-08-21T00:40:58;13.55;;;8.27;;
72573;SDS011;60603;52.548;13.420;2023-08-21T00:43:25;16.33;;;8.50;;
72573;SDS011;60603;52.548;13.420;2023-08-21T00:45:51;13.63;;;8.68;;
72573;SDS011;60603;52.548;13.420;2023-08-21T00:48:19;14.32;;;8.40;;
72573;SDS011;60603;52.548;13.420;2023-08-21T00:50:45;14.68;;;8.88;;
72573;SDS011;60603;52.548;13.420;2023-08-21T00:53:13;14.75;;;8.45;;
72573;SDS011;60603;52.548;13.420;2023-08-21T00:55:40;15.02;;;8.13;;
72573;SDS011;60603;52.548;13.420;2023-08-21T00:58:07;14.18;;;8.48;;
72573;SDS011;60603;52.548;13.420;2023-08-21T01:00:35;17.48;;;8.27;;
72573;SDS011;60603;52.548;13.420;2023-08-21T01:03:02;16.77;;;8.40;;
72573;SDS011;60603;52.548;13.420;2023-08-21T01:05:29;15.07;;;8.70;;
72573;SDS011;60603;52.548;13.420;2023-08-21T01:07:58;13.38;;;8.10;;
72573;SDS011;60603;52.548;13.420;2023-08-21T01:10:38;14.35;;;7.80;;
72573;SDS011;60603;52.548;13.420;2023-08-21T01:16:02;15.52;;;9.05;;
72573;SDS011;60603;52.548;13.420;2023-08-21T01:18:30;15.63;;;8.00;;
72573;SDS011;60603;52.548;13.420;2023-08-21T01:20:58;18.02;;;8.55;;
72573;SDS011;60603;52.548;13.420;2023-08-21T01:23:27;12.82;;;8.18;;
72573;SDS011;60603;52.548;13.420;2023-08-21T01:26:00;16.17;;;8.50;;
72573;SDS011;60603;52.548;13.420;2023-08-21T01:28:28;14.10;;;7.90;;
72573;SDS011;60603;52.548;13.420;2023-08-21T01:31:14;14.18;;;7.90;;
72573;SDS011;60603;52.548;13.420;2023-08-21T01:33:46;16.80;;;8.40;;
72573;SDS011;60603;52.548;13.420;2023-08-21T01:36:15;15.43;;;8.60;;
72573;SDS011;60603;52.548;13.420;2023-08-21T01:38:42;15.60;;;8.00;;
72573;SDS011;60603;52.548;13.420;2023-08-21T01:41:09;12.63;;;7.72;;
72573;SDS011;60603;52.548;13.420;2023-08-21T01:43:36;11.38;;;7.45;;
72573;SDS011;60603;52.548;13.420;2023-08-21T01:46:03;12.68;;;7.85;;
72573;SDS011;60603;52.548;13.420;2023-08-21T01:48:30;12.68;;;7.15;;
72573;SDS011;60603;52.548;13.420;2023-08-21T01:50:57;13.25;;;7.63;;
72573;SDS011;60603;52.548;13.420;2023-08-21T01:53:23;11.05;;;7.63;;
72573;SDS011;60603;52.548;13.420;2023-08-21T01:55:50;11.95;;;7.47;;
72573;SDS011;60603;52.548;13.420;2023-08-21T01:58:17;12.57;;;7.88;;
72573;SDS011;60603;52.548;13.420;2023-08-21T02:00:47;14.32;;;7.60;;
72573;SDS011;60603;52.548;13.420;2023-08-21T02:03:14;14.65;;;8.10;;
72573;SDS011;60603;52.548;13.420;2023-08-21T02:05:41;13.93;;;7.78;;
72573;SDS011;60603;52.548;13.420;2023-08-21T02:08:11;13.18;;;7.55;;
72573;SDS011;60603;52.548;13.420;2023-08-21T02:10:47;9.75;;;7.25;;
72573;SDS011;60603;52.548;13.420;2023-08-21T02:13:15;13.02;;;7.55;;
72573;SDS011;60603;52.548;13.420;2023-08-21T02:15:42;12.27;;;7.22;;
72573;SDS011;60603;52.548;13.420;2023-08-21T02:18:09;11.80;;;7.00;;
72573;SDS011;60603;52.548;13.420;2023-08-21T02:20:36;11.95;;;7.15;;
72573;SDS011;60603;52.548;13.420;2023-08-21T02:23:02;13.88;;;7.50;;
72573;SDS011;60603;52.548;13.420;2023-08-21T02:25:30;12.80;;;7.20;;
72573;SDS011;60603;52.548;13.420;2023-08-21T02:28:00;11.80;;;7.50;;
72573;SDS011;60603;52.548;13.420;2023-08-21T02:30:28;11.43;;;6.90;;
72573;SDS011;60603;52.548;13.420;2023-08-21T02:32:55;13.68;;;7.05;;
72573;SDS011;60603;52.548;13.420;2023-08-21T02:35:22;10.63;;;5.75;;
72573;SDS011;60603;52.548;13.420;2023-08-21T02:37:49;10.15;;;6.53;;
72573;SDS011;60603;52.548;13.420;2023-08-21T02:40:16;12.40;;;6.75;;
72573;SDS011;60603;52.548;13.420;2023-08-21T02:42:42;12.35;;;6.93;;
72573;SDS011;60603;52.548;13.420;2023-08-21T02:45:09;13.05;;;6.82;;
72573;SDS011;60603;52.548;13.420;2023-08-21T02:47:40;11.88;;;6.65;;
72573;SDS011;60603;52.548;13.420;2023-08-21T02:50:08;11.13;;;5.70;;
72573;SDS011;60603;52.548;13.420;2023-08-21T02:52:35;12.60;;;6.70;;
72573;SDS011;60603;52.548;13.420;2023-08-21T02:55:03;13.07;;;6.40;;
72573;SDS011;60603;52.548;13.420;2023-08-21T02:57:30;10.82;;;6.10;;
72573;SDS011;60603;52.548;13.420;2023-08-21T02:59:57;10.02;;;6.10;;
72573;SDS011;60603;52.548;13.420;2023-08-21T03:02:24;13.25;;;6.57;;
72573;SDS011;60603;52.548;13.420;2023-08-21T03:04:51;12.32;;;6.15;;
72573;SDS011;60603;52.548;13.420;2023-08-21T03:07:18;13.15;;;6.90;;
72573;SDS011;60603;52.548;13.420;2023-08-21T03:09:46;13.13;;;6.50;;
72573;SDS011;60603;52.548;13.420;2023-08-21T03:12:13;11.60;;;6.78;;
72573;SDS011;60603;52.548;13.420;2023-08-21T03:14:40;10.93;;;6.43;;
72573;SDS011;60603;52.548;13.420;2023-08-21T03:17:07;10.07;;;6.05;;
72573;SDS011;60603;52.548;13.420;2023-08-21T03:19:34;10.20;;;6.20;;
72573;SDS011;60603;52.548;13.420;2023-08-21T03:22:01;11.85;;;6.45;;
72573;SDS011;60603;52.548;13.420;2023-08-21T03:24:28;12.10;;;6.57;;
72573;SDS011;60603;52.548;13.420;2023-08-21T03:26:55;9.48;;;6.05;;
72573;SDS011;60603;52.548;13.420;2023-08-21T03:29:22;11.00;;;6.07;;
72573;SDS011;60603;52.548;13.420;2023-08-21T03:31:49;11.35;;;6.10;;
72573;SDS011;60603;52.548;13.420;2023-08-21T03:34:16;8.60;;;5.60;;
72573;SDS011;60603;52.548;13.420;2023-08-21T03:36:43;10.75;;;6.03;;
72573;SDS011;60603;52.548;13.420;2023-08-21T03:39:09;10.20;;;6.00;;
72573;SDS011;60603;52.548;13.420;2023-08-21T03:41:36;13.45;;;6.75;;
72573;SDS011;60603;52.548;13.420;2023-08-21T03:44:03;10.65;;;5.70;;
72573;SDS011;60603;52.548;13.420;2023-08-21T03:46:30;13.80;;;6.38;;
72573;SDS011;60603;52.548;13.420;2023-08-21T03:48:58;12.20;;;6.13;;
72573;SDS011;60603;52.548;13.420;2023-08-21T03:51:24;10.82;;;6.10;;
72573;SDS011;60603;52.548;13.420;2023-08-21T03:53:51;8.55;;;5.65;;
72573;SDS011;60603;52.548;13.420;2023-08-21T03:56:18;10.38;;;5.32;;
72573;SDS011;60603;52.548;13.420;2023-08-21T03:58:46;9.65;;;5.70;;
72573;SDS011;60603;52.548;13.420;2023-08-21T04:01:14;10.68;;;6.43;;
72573;SDS011;60603;52.548;13.420;2023-08-21T04:03:42;12.30;;;6.72;;
72573;SDS011;60603;52.548;13.420;2023-08-21T04:06:09;10.18;;;6.65;;
72573;SDS011;60603;52.548;13.420;2023-08-21T04:08:36;10.77;;;5.90;;
72573;SDS011;60603;52.548;13.420;2023-08-21T04:11:03;12.77;;;7.28;;
72573;SDS011;60603;52.548;13.420;2023-08-21T04:13:31;10.48;;;6.30;;
72573;SDS011;60603;52.548;13.420;2023-08-21T04:15:57;9.60;;;5.68;;
72573;SDS011;60603;52.548;13.420;2023-08-21T04:18:25;12.48;;;6.68;;
72573;SDS011;60603;52.548;13.420;2023-08-21T04:21:06;13.05;;;6.22;;
72573;SDS011;60603;52.548;13.420;2023-08-21T04:23:33;13.32;;;7.32;;
72573;SDS011;60603;52.548;13.420;2023-08-21T04:26:03;10.70;;;6.90;;
72573;SDS011;60603;52.548;13.420;2023-08-21T04:28:30;12.90;;;6.38;;
72573;SDS011;60603;52.548;13.420;2023-08-21T04:30:57;9.65;;;5.65;;
72573;SDS011;60603;52.548;13.420;2023-08-21T04:33:25;12.48;;;8.45;;
72573;SDS011;60603;52.548;13.420;2023-08-21T04:35:52;11.38;;;7.15;;
72573;SDS011;60603;52.548;13.420;2023-08-21T04:38:19;12.02;;;6.82;;
72573;SDS011;60603;52.548;13.420;2023-08-21T04:40:46;9.98;;;5.57;;
72573;SDS011;60603;52.548;13.420;2023-08-21T04:43:13;12.70;;;6.65;;
72573;SDS011;60603;52.548;13.420;2023-08-21T04:45:49;11.15;;;6.63;;
72573;SDS011;60603;52.548;13.420;2023-08-21T04:48:17;12.77;;;7.03;;
72573;SDS011;60603;52.548;13.420;2023-08-21T04:50:44;12.98;;;6.32;;
72573;SDS011;60603;52.548;13.420;2023-08-21T04:53:12;9.38;;;5.43;;
72573;SDS011;60603;52.548;13.420;2023-08-21T04:55:39;11.30;;;5.78;;
72573;SDS011;60603;52.548;13.420;2023-08-21T04:58:07;9.45;;;5.15;;
72573;SDS011;60603;52.548;13.420;2023-08-21T05:00:34;10.43;;;5.65;;
72573;SDS011;60603;52.548;13.420;2023-08-21T05:03:01;13.30;;;6.20;;
72573;SDS011;60603;52.548;13.420;2023-08-21T05:05:28;9.85;;;5.55;;
72573;SDS011;60603;52.548;13.420;2023-08-21T05:07:55;10.68;;;5.82;;
72573;SDS011;60603;52.548;13.420;2023-08-21T05:10:22;13.30;;;5.75;;
72573;SDS011;60603;52.548;13.420;2023-08-21T05:12:49;11.45;;;5.93;;
72573;SDS011;60603;52.548;13.420;2023-08-21T05:15:16;10.75;;;5.95;;
72573;SDS011;60603;52.548;13.420;2023-08-21T05:17:43;11.65;;;6.22;;
72573;SDS011;60603;52.548;13.420;2023-08-21T05:20:10;10.80;;;6.53;;
72573;SDS011;60603;52.548;13.420;2023-08-21T05:22:40;8.95;;;5.93;;
72573;SDS011;60603;52.548;13.420;2023-08-21T05:25:07;11.07;;;5.97;;
72573;SDS011;60603;52.548;13.420;2023-08-21T05:27:35;11.38;;;6.30;;
72573;SDS011;60603;52.548;13.420;2023-08-21T05:30:01;9.60;;;5.97;;
72573;SDS011;60603;52.548;13.420;2023-08-21T05:32:29;11.07;;;6.47;;
72573;SDS011;60603;52.548;13.420;2023-08-21T05:34:56;11.70;;;6.68;;
72573;SDS011;60603;52.548;13.420;2023-08-21T05:37:23;14.45;;;6.68;;
72573;SDS011;60603;52.548;13.420;2023-08-21T05:39:50;36.80;;;9.98;;
72573;SDS011;60603;52.548;13.420;2023-08-21T05:42:17;124.28;;;20.10;;
72573;SDS011;60603;52.548;13.420;2023-08-21T05:44:44;71.85;;;11.73;;
72573;SDS011;60603;52.548;13.420;2023-08-21T05:47:11;22.15;;;9.60;;
72573;SDS011;60603;52.548;13.420;2023-08-21T05:49:37;23.02;;;6.70;;
72573;SDS011;60603;52.548;13.420;2023-08-21T05:52:05;12.18;;;6.28;;
72573;SDS011;60603;52.548;13.420;2023-08-21T05:54:31;10.82;;;7.15;;
72573;SDS011;60603;52.548;13.420;2023-08-21T05:56:58;10.30;;;6.68;;
72573;SDS011;60603;52.548;13.420;2023-08-21T05:59:30;10.38;;;6.30;;
72573;SDS011;60603;52.548;13.420;2023-08-21T06:01:57;95.57;;;12.80;;
72573;SDS011;60603;52.548;13.420;2023-08-21T06:04:24;14.38;;;6.97;;
72573;SDS011;60603;52.548;13.420;2023-08-21T06:06:51;11.77;;;6.65;;
72573;SDS011;60603;52.548;13.420;2023-08-21T06:09:19;11.77;;;6.65;;
72573;SDS011;60603;52.548;13.420;2023-08-21T06:11:46;10.40;;;6.30;;
72573;SDS011;60603;52.548;13.420;2023-08-21T06:14:12;11.02;;;6.75;;
72573;SDS011;60603;52.548;13.420;2023-08-21T06:16:39;16.05;;;6.63;;
72573;SDS011;60603;52.548;13.420;2023-08-21T06:19:06;13.95;;;6.30;;
72573;SDS011;60603;52.548;13.420;2023-08-21T06:21:34;13.60;;;6.65;;
72573;SDS011;60603;52.548;13.420;2023-08-21T06:24:00;10.25;;;6.00;;
72573;SDS011;60603;52.548;13.420;2023-08-21T06:26:27;10.30;;;6.22;;
72573;SDS011;60603;52.548;13.420;2023-08-21T06:28:54;10.43;;;6.28;;
72573;SDS011;60603;52.548;13.420;2023-08-21T06:31:21;10.00;;;6.60;;
72573;SDS011;60603;52.548;13.420;2023-08-21T06:33:48;9.23;;;6.05;;
72573;SDS011;60603;52.548;13.420;2023-08-21T06:36:15;9.95;;;6.50;;
72573;SDS011;60603;52.548;13.420;2023-08-21T06:38:41;10.35;;;5.80;;
72573;SDS011;60603;52.548;13.420;2023-08-21T06:41:09;11.07;;;5.93;;
72573;SDS011;60603;52.548;13.420;2023-08-21T06:43:38;11.45;;;6.97;;
72573;SDS011;60603;52.548;13.420;2023-08-21T06:46:09;10.35;;;6.38;;
72573;SDS011;60603;52.548;13.420;2023-08-21T06:48:37;11.20;;;5.93;;
72573;SDS011;60603;52.548;13.420;2023-08-21T06:51:09;11.30;;;6.65;;
72573;SDS011;60603;52.548;13.420;2023-08-21T06:53:36;9.55;;;5.70;;
72573;SDS011;60603;52.548;13.420;2023-08-21T06:56:03;14.32;;;6.22;;
72573;SDS011;60603;52.548;13.420;2023-08-21T06:58:30;9.45;;;6.97;;
72573;SDS011;60603;52.548;13.420;2023-08-21T07:00:59;8.57;;;5.75;;
72573;SDS011;60603;52.548;13.420;2023-08-21T07:03:26;10.82;;;6.65;;
72573;SDS011;60603;52.548;13.420;2023-08-21T07:05:54;8.65;;;5.63;;
72573;SDS011;60603;52.548;13.420;2023-08-21T07:08:22;11.05;;;6.30;;
72573;SDS011;60603;52.548;13.420;2023-08-21T07:10:50;9.73;;;5.45;;
72573;SDS011;60603;52.548;13.420;2023-08-21T07:13:17;8.95;;;5.30;;
72573;SDS011;60603;52.548;13.420;2023-08-21T07:15:44;8.77;;;5.30;;
72573;SDS011;60603;52.548;13.420;2023-08-21T07:18:11;10.77;;;5.85;;
72573;SDS011;60603;52.548;13.420;2023-08-21T07:20:39;8.98;;;4.68;;
72573;SDS011;60603;52.548;13.420;2023-08-21T07:23:06;8.82;;;5.78;;
72573;SDS011;60603;52.548;13.420;2023-08-21T07:25:33;11.07;;;5.97;;
72573;SDS011;60603;52.548;13.420;2023-08-21T07:27:59;9.52;;;5.90;;
72573;SDS011;60603;52.548;13.420;2023-08-21T07:30:27;10.02;;;5.10;;
72573;SDS011;60603;52.548;13.420;2023-08-21T07:32:54;8.93;;;4.55;;
72573;SDS011;60603;52.548;13.420;2023-08-21T07:35:21;9.63;;;4.85;;
72573;SDS011;60603;52.548;13.420;2023-08-21T07:37:48;9.48;;;5.90;;
72573;SDS011;60603;52.548;13.420;2023-08-21T07:40:15;7.85;;;5.00;;
72573;SDS011;60603;52.548;13.420;2023-08-21T07:42:41;10.35;;;4.90;;
72573;SDS011;60603;52.548;13.420;2023-08-21T07:45:09;9.20;;;4.78;;
72573;SDS011;60603;52.548;13.420;2023-08-21T07:47:37;8.00;;;5.15;;
72573;SDS011;60603;52.548;13.420;2023-08-21T07:50:07;9.10;;;4.75;;
72573;SDS011;60603;52.548;13.420;2023-08-21T07:52:35;7.90;;;4.13;;
72573;SDS011;60603;52.548;13.420;2023-08-21T07:55:03;6.50;;;3.67;;
72573;SDS011;60603;52.548;13.420;2023-08-21T07:57:30;6.63;;;3.78;;
72573;SDS011;60603;52.548;13.420;2023-08-21T07:59:57;6.60;;;3.47;;
72573;SDS011;60603;52.548;13.420;2023-08-21T08:02:24;6.82;;;3.20;;
72573;SDS011;60603;52.548;13.420;2023-08-21T08:04:51;8.07;;;3.05;;
72573;SDS011;60603;52.548;13.420;2023-08-21T08:07:18;7.20;;;3.10;;
72573;SDS011;60603;52.548;13.420;2023-08-21T08:09:45;7.00;;;3.30;;
72573;SDS011;60603;52.548;13.420;2023-08-21T08:12:13;6.13;;;2.90;;
72573;SDS011;60603;52.548;13.420;2023-08-21T08:14:40;6.70;;;3.65;;
72573;SDS011;60603;52.548;13.420;2023-08-21T08:17:07;6.85;;;3.13;;
72573;SDS011;60603;52.548;13.420;2023-08-21T08:19:34;8.70;;;3.25;;
72573;SDS011;60603;52.548;13.420;2023-08-21T08:22:00;6.53;;;3.45;;
72573;SDS011;60603;52.548;13.420;2023-08-21T08:24:28;6.53;;;3.30;;
72573;SDS011;60603;52.548;13.420;2023-08-21T08:26:55;7.80;;;2.95;;
72573;SDS011;60603;52.548;13.420;2023-08-21T08:29:22;6.15;;;2.83;;
72573;SDS011;60603;52.548;13.420;2023-08-21T08:31:49;5.85;;;3.38;;
72573;SDS011;60603;52.548;13.420;2023-08-21T08:34:16;7.82;;;2.97;;
72573;SDS011;60603;52.548;13.420;2023-08-21T08:36:46;5.55;;;2.60;;
72573;SDS011;60603;52.548;13.420;2023-08-21T08:39:13;4.25;;;1.83;;
72573;SDS011;60603;52.548;13.420;2023-08-21T08:41:59;5.07;;;1.90;;
72573;SDS011;60603;52.548;13.420;2023-08-21T08:44:30;4.30;;;1.55;;
72573;SDS011;60603;52.548;13.420;2023-08-21T08:46:56;6.20;;;1.75;;
72573;SDS011;60603;52.548;13.420;2023-08-21T08:49:24;4.10;;;1.70;;
72573;SDS011;60603;52.548;13.420;2023-08-21T08:51:51;4.07;;;1.60;;
72573;SDS011;60603;52.548;13.420;2023-08-21T08:54:21;4.22;;;1.48;;
72573;SDS011;60603;52.548;13.420;2023-08-21T08:56:48;3.38;;;1.20;;
72573;SDS011;60603;52.548;13.420;2023-08-21T08:59:15;3.70;;;1.27;;
72573;SDS011;60603;52.548;13.420;2023-08-21T09:01:42;4.10;;;1.33;;
72573;SDS011;60603;52.548;13.420;2023-08-21T09:04:10;6.13;;;1.50;;
72573;SDS011;60603;52.548;13.420;2023-08-21T09:06:38;3.50;;;1.58;;
72573;SDS011;60603;52.548;13.420;2023-08-21T09:09:05;5.07;;;1.45;;
72573;SDS011;60603;52.548;13.420;2023-08-21T09:11:33;5.78;;;1.40;;
72573;SDS011;60603;52.548;13.420;2023-08-21T09:14:00;3.00;;;1.00;;
72573;SDS011;60603;52.548;13.420;2023-08-21T09:16:27;4.22;;;1.25;;
72573;SDS011;60603;52.548;13.420;2023-08-21T09:18:55;2.80;;;0.90;;
72573;SDS011;60603;52.548;13.420;2023-08-21T09:21:23;4.40;;;1.40;;
72573;SDS011;60603;52.548;13.420;2023-08-21T09:23:58;3.92;;;1.40;;
72573;SDS011;60603;52.548;13.420;2023-08-21T09:26:26;2.53;;;1.13;;
72573;SDS011;60603;52.548;13.420;2023-08-21T09:28:53;4.32;;;1.60;;
72573;SDS011;60603;52.548;13.420;2023-08-21T09:31:38;4.00;;;1.30;;
72573;SDS011;60603;52.548;13.420;2023-08-21T09:34:06;3.88;;;1.20;;
72573;SDS011;60603;52.548;13.420;2023-08-21T09:36:33;4.85;;;1.55;;
72573;SDS011;60603;52.548;13.420;2023-08-21T09:39:01;3.17;;;1.15;;
72573;SDS011;60603;52.548;13.420;2023-08-21T09:41:28;5.18;;;1.38;;
72573;SDS011;60603;52.548;13.420;2023-08-21T09:43:59;5.47;;;1.23;;
72573;SDS011;60603;52.548;13.420;2023-08-21T09:46:27;5.93;;;1.80;;
72573;SDS011;60603;52.548;13.420;2023-08-21T09:48:55;3.50;;;1.42;;
72573;SDS011;60603;52.548;13.420;2023-08-21T09:51:22;4.13;;;1.30;;
72573;SDS011;60603;52.548;13.420;2023-08-21T09:53:49;5.90;;;1.30;;
72573;SDS011;60603;52.548;13.420;2023-08-21T09:56:19;5.47;;;1.40;;
72573;SDS011;60603;52.548;13.420;2023-08-21T09:58:47;2.75;;;1.20;;
72573;SDS011;60603;52.548;13.420;2023-08-21T10:01:15;5.65;;;1.75;;
72573;SDS011;60603;52.548;13.420;2023-08-21T10:03:43;6.10;;;1.80;;
72573;SDS011;60603;52.548;13.420;2023-08-21T10:06:15;5.20;;;1.40;;
72573;SDS011;60603;52.548;13.420;2023-08-21T10:08:48;5.15;;;1.45;;
72573;SDS011;60603;52.548;13.420;2023-08-21T10:11:17;4.63;;;1.42;;
72573;SDS011;60603;52.548;13.420;2023-08-21T10:13:46;4.03;;;1.40;;
72573;SDS011;60603;52.548;13.420;2023-08-21T10:16:13;4.32;;;1.60;;
72573;SDS011;60603;52.548;13.420;2023-08-21T10:18:43;5.38;;;1.63;;
72573;SDS011;60603;52.548;13.420;2023-08-21T10:23:39;4.15;;;1.23;;
72573;SDS011;60603;52.548;13.420;2023-08-21T10:26:11;5.20;;;1.90;;
72573;SDS011;60603;52.548;13.420;2023-08-21T10:31:28;4.05;;;1.50;;
72573;SDS011;60603;52.548;13.420;2023-08-21T10:33:55;4.13;;;1.35;;
72573;SDS011;60603;52.548;13.420;2023-08-21T10:39:19;4.50;;;1.50;;
72573;SDS011;60603;52.548;13.420;2023-08-21T10:41:57;5.43;;;1.52;;
72573;SDS011;60603;52.548;13.420;2023-08-21T10:49:55;6.00;;;1.50;;
72573;SDS011;60603;52.548;13.420;2023-08-21T10:52:27;4.80;;;2.08;;
72573;SDS011;60603;52.548;13.420;2023-08-21T10:54:59;5.35;;;1.83;;
72573;SDS011;60603;52.548;13.420;2023-08-21T10:57:27;5.45;;;1.63;;
72573;SDS011;60603;52.548;13.420;2023-08-21T10:59:56;7.43;;;1.63;;
72573;SDS011;60603;52.548;13.420;2023-08-21T11:02:26;4.63;;;1.33;;
72573;SDS011;60603;52.548;13.420;2023-08-21T11:04:55;3.42;;;1.67;;
72573;SDS011;60603;52.548;13.420;2023-08-21T11:07:22;3.22;;;1.33;;
72573;SDS011;60603;52.548;13.420;2023-08-21T11:09:49;9.98;;;1.73;;
72573;SDS011;60603;52.548;13.420;2023-08-21T11:12:17;6.25;;;1.83;;
72573;SDS011;60603;52.548;13.420;2023-08-21T11:14:45;4.78;;;1.55;;
72573;SDS011;60603;52.548;13.420;2023-08-21T11:17:12;5.78;;;1.40;;
72573;SDS011;60603;52.548;13.420;2023-08-21T11:19:40;4.55;;;1.50;;
72573;SDS011;60603;52.548;13.420;2023-08-21T11:22:08;2.60;;;1.15;;
72573;SDS011;60603;52.548;13.420;2023-08-21T11:24:45;4.78;;;1.30;;
72573;SDS011;60603;52.548;13.420;2023-08-21T11:27:14;6.57;;;1.70;;
72573;SDS011;60603;52.548;13.420;2023-08-21T11:29:46;4.68;;;1.33;;
72573;SDS011;60603;52.548;13.420;2023-08-21T11:32:15;7.72;;;1.80;;
72573;SDS011;60603;52.548;13.420;2023-08-21T11:34:47;18.65;;;3.38;;
72573;SDS011;60603;52.548;13.420;2023-08-21T11:37:22;5.50;;;1.40;;
72573;SDS011;60603;52.548;13.420;2023-08-21T11:39:51;4.13;;;1.27;;
72573;SDS011;60603;52.548;13.420;2023-08-21T11:42:20;5.25;;;1.52;;
72573;SDS011;60603;52.548;13.420;2023-08-21T11:44:49;4.40;;;1.48;;
72573;SDS011;60603;52.548;13.420;2023-08-21T11:47:18;6.25;;;1.92;;
72573;SDS011;60603;52.548;13.420;2023-08-21T11:49:46;4.15;;;1.20;;
72573;SDS011;60603;52.548;13.420;2023-08-21T11:52:14;4.88;;;1.40;;
72573;SDS011;60603;52.548;13.420;2023-08-21T11:54:46;4.70;;;1.67;;
72573;SDS011;60603;52.548;13.420;2023-08-21T11:57:17;3.95;;;1.42;;
72573;SDS011;60603;52.548;13.420;2023-08-21T11:59:51;3.67;;;1.20;;
72573;SDS011;60603;52.548;13.420;2023-08-21T12:02:22;4.90;;;2.08;;
72573;SDS011;60603;52.548;13.420;2023-08-21T12:05:05;5.97;;;1.15;;
72573;SDS011;60603;52.548;13.420;2023-08-21T12:07:33;4.07;;;1.25;;
72573;SDS011;60603;52.548;13.420;2023-08-21T12:10:00;4.25;;;1.60;;
72573;SDS011;60603;52.548;13.420;2023-08-21T12:12:27;6.93;;;1.63;;
72573;SDS011;60603;52.548;13.420;2023-08-21T12:14:54;4.05;;;1.27;;
72573;SDS011;60603;52.548;13.420;2023-08-21T12:17:21;4.65;;;1.40;;
72573;SDS011;60603;52.548;13.420;2023-08-21T12:19:48;4.90;;;1.35;;
72573;SDS011;60603;52.548;13.420;2023-08-21T12:22:15;5.32;;;2.28;;
72573;SDS011;60603;52.548;13.420;2023-08-21T12:24:42;4.88;;;1.30;;
72573;SDS011;60603;52.548;13.420;2023-08-21T12:27:08;3.45;;;1.27;;
72573;SDS011;60603;52.548;13.420;2023-08-21T12:29:35;5.65;;;1.58;;
72573;SDS011;60603;52.548;13.420;2023-08-21T12:32:02;5.45;;;1.60;;
72573;SDS011;60603;52.548;13.420;2023-08-21T12:34:30;6.22;;;2.22;;
72573;SDS011;60603;52.548;13.420;2023-08-21T12:36:56;3.88;;;1.50;;
72573;SDS011;60603;52.548;13.420;2023-08-21T12:39:23;4.43;;;1.27;;
72573;SDS011;60603;52.548;13.420;2023-08-21T12:41:50;4.93;;;1.65;;
72573;SDS011;60603;52.548;13.420;2023-08-21T12:44:17;3.42;;;1.30;;
72573;SDS011;60603;52.548;13.420;2023-08-21T12:46:44;3.83;;;1.67;;
72573;SDS011;60603;52.548;13.420;2023-08-21T12:49:11;3.70;;;1.25;;
72573;SDS011;60603;52.548;13.420;2023-08-21T12:51:38;4.22;;;1.33;;
72573;SDS011;60603;52.548;13.420;2023-08-21T12:54:06;4.88;;;1.52;;
72573;SDS011;60603;52.548;13.420;2023-08-21T12:56:35;6.18;;;1.55;;
72573;SDS011;60603;52.548;13.420;2023-08-21T12:59:02;11.10;;;1.50;;
72573;SDS011;60603;52.548;13.420;2023-08-21T13:01:29;3.45;;;1.13;;
72573;SDS011;60603;52.548;13.420;2023-08-21T13:03:58;3.22;;;1.17;;
72573;SDS011;60603;52.548;13.420;2023-08-21T13:06:25;6.43;;;1.17;;
72573;SDS011;60603;52.548;13.420;2023-08-21T13:08:52;3.28;;;1.15;;
72573;SDS011;60603;52.548;13.420;2023-08-21T13:11:20;3.53;;;0.98;;
72573;SDS011;60603;52.548;13.420;2023-08-21T13:13:48;2.75;;;1.00;;
72573;SDS011;60603;52.548;13.420;2023-08-21T13:16:14;4.50;;;1.10;;
72573;SDS011;60603;52.548;13.420;2023-08-21T13:18:42;4.68;;;1.10;;
72573;SDS011;60603;52.548;13.420;2023-08-21T13:21:08;2.50;;;1.08;;
72573;SDS011;60603;52.548;13.420;2023-08-21T13:23:35;4.15;;;1.13;;
72573;SDS011;60603;52.548;13.420;2023-08-21T13:26:02;4.88;;;1.38;;
72573;SDS011;60603;52.548;13.420;2023-08-21T13:28:29;6.40;;;1.55;;
72573;SDS011;60603;52.548;13.420;2023-08-21T13:30:57;3.85;;;1.30;;
72573;SDS011;60603;52.548;13.420;2023-08-21T13:33:25;10.00;;;2.00;;
72573;SDS011;60603;52.548;13.420;2023-08-21T13:35:52;4.40;;;1.20;;
72573;SDS011;60603;52.548;13.420;2023-08-21T13:38:19;3.17;;;1.20;;
72573;SDS011;60603;52.548;13.420;2023-08-21T13:40:45;4.93;;;1.40;;
72573;SDS011;60603;52.548;13.420;2023-08-21T13:43:12;5.25;;;1.15;;
72573;SDS011;60603;52.548;13.420;2023-08-21T13:45:39;3.60;;;1.10;;
72573;SDS011;60603;52.548;13.420;2023-08-21T13:48:09;5.50;;;1.30;;
72573;SDS011;60603;52.548;13.420;2023-08-21T13:50:36;7.60;;;1.30;;
72573;SDS011;60603;52.548;13.420;2023-08-21T13:53:03;6.47;;;1.30;;
72573;SDS011;60603;52.548;13.420;2023-08-21T13:55:30;8.55;;;1.80;;
72573;SDS011;60603;52.548;13.420;2023-08-21T13:57:57;6.95;;;2.50;;
72573;SDS011;60603;52.548;13.420;2023-08-21T14:00:23;6.75;;;1.33;;
72573;SDS011;60603;52.548;13.420;2023-08-21T14:02:51;8.05;;;1.77;;
72573;SDS011;60603;52.548;13.420;2023-08-21T14:05:17;5.63;;;1.33;;
72573;SDS011;60603;52.548;13.420;2023-08-21T14:07:44;3.78;;;1.15;;
72573;SDS011;60603;52.548;13.420;2023-08-21T14:10:11;8.02;;;1.88;;
72573;SDS011;60603;52.548;13.420;2023-08-21T14:12:40;6.20;;;1.40;;
72573;SDS011;60603;52.548;13.420;2023-08-21T14:15:08;3.17;;;1.42;;
72573;SDS011;60603;52.548;13.420;2023-08-21T14:17:38;5.28;;;1.13;;
72573;SDS011;60603;52.548;13.420;2023-08-21T14:20:05;3.70;;;1.50;;
72573;SDS011;60603;52.548;13.420;2023-08-21T14:22:35;5.72;;;1.33;;
72573;SDS011;60603;52.548;13.420;2023-08-21T14:25:03;3.92;;;1.40;;
72573;SDS011;60603;52.548;13.420;2023-08-21T14:27:32;6.70;;;1.40;;
72573;SDS011;60603;52.548;13.420;2023-08-21T14:29:59;4.88;;;1.13;;
72573;SDS011;60603;52.548;13.420;2023-08-21T14:32:26;3.10;;;1.20;;
72573;SDS011;60603;52.548;13.420;2023-08-21T14:34:53;2.85;;;1.00;;
72573;SDS011;60603;52.548;13.420;2023-08-21T14:37:21;3.25;;;1.17;;
72573;SDS011;60603;52.548;13.420;2023-08-21T14:39:50;4.32;;;1.20;;
72573;SDS011;60603;52.548;13.420;2023-08-21T14:42:18;3.30;;;1.02;;
72573;SDS011;60603;52.548;13.420;2023-08-21T14:44:45;3.67;;;1.15;;
72573;SDS011;60603;52.548;13.420;2023-08-21T14:47:12;4.03;;;1.42;;
72573;SDS011;60603;52.548;13.420;2023-08-21T14:49:39;3.45;;;1.05;;